sensor_id;sensor_type;location;lat;lon;timestamp;P1;durP1;ratioP1;P2;durP2;ratioP2
33824;SDS011;20127;48.962;8.342;2023-05-10T00:00:17;2.35;;;1.73;;
33824;SDS011;20127;48.962;8.342;2023-05-10T00:03:18;1.95;;;1.40;;
33824;SDS011;20127;48.962;8.342;2023-05-10T00:06:21;1.98;;;1.60;;
33824;SDS011;20127;48.962;8.342;2023-05-10T00:09:23;2.55;;;1.50;;
33824;SDS011;20127;48.962;8.342;2023-05-10T00:12:25;3.22;;;1.50;;
33824;SDS011;20127;48.962;8.342;2023-05-10T00:15:26;3.38;;;1.45;;
33824;SDS011;20127;48.962;8.342;2023-05-10T00:18:30;3.42;;;2.15;;
33824;SDS011;20127;48.962;8.342;2023-05-10T00:21:33;3.20;;;1.38;;
33824;SDS011;20127;48.962;8.342;2023-05-10T00:24:35;4.10;;;2.00;;
33824;SDS011;20127;48.962;8.342;2023-05-10T00:27:36;1.88;;;1.40;;
33824;SDS011;20127;48.962;8.342;2023-05-10T00:30:38;1.90;;;1.50;;
33824;SDS011;20127;48.962;8.342;2023-05-10T00:33:40;3.10;;;1.63;;
33824;SDS011;20127;48.962;8.342;2023-05-10T00:36:43;2.70;;;1.75;;
33824;SDS011;20127;48.962;8.342;2023-05-10T00:39:44;1.63;;;1.52;;
33824;SDS011;20127;48.962;8.342;2023-05-10T00:42:46;5.45;;;2.40;;
33824;SDS011;20127;48.962;8.342;2023-05-10T00:45:48;2.45;;;2.20;;
33824;SDS011;20127;48.962;8.342;2023-05-10T00:48:50;5.30;;;2.83;;
33824;SDS011;20127;48.962;8.342;2023-05-10T00:51:53;4.28;;;1.70;;
33824;SDS011;20127;48.962;8.342;2023-05-10T00:54:55;1.92;;;1.80;;
33824;SDS011;20127;48.962;8.342;2023-05-10T00:57:57;4.35;;;2.35;;
33824;SDS011;20127;48.962;8.342;2023-05-10T01:00:59;2.85;;;2.17;;
33824;SDS011;20127;48.962;8.342;2023-05-10T01:04:02;2.13;;;1.85;;
33824;SDS011;20127;48.962;8.342;2023-05-10T01:07:05;2.90;;;2.25;;
33824;SDS011;20127;48.962;8.342;2023-05-10T01:10:07;6.65;;;2.88;;
33824;SDS011;20127;48.962;8.342;2023-05-10T01:13:10;2.85;;;2.55;;
33824;SDS011;20127;48.962;8.342;2023-05-10T01:16:13;2.53;;;2.20;;
33824;SDS011;20127;48.962;8.342;2023-05-10T01:19:17;3.50;;;2.67;;
33824;SDS011;20127;48.962;8.342;2023-05-10T01:25:58;2.85;;;2.65;;
33824;SDS011;20127;48.962;8.342;2023-05-10T01:29:27;3.45;;;3.15;;
33824;SDS011;20127;48.962;8.342;2023-05-10T01:32:58;3.00;;;2.70;;
33824;SDS011;20127;48.962;8.342;2023-05-10T01:36:11;3.70;;;3.25;;
33824;SDS011;20127;48.962;8.342;2023-05-10T01:39:17;3.95;;;3.55;;
33824;SDS011;20127;48.962;8.342;2023-05-10T01:45:28;3.97;;;3.60;;
33824;SDS011;20127;48.962;8.342;2023-05-10T01:48:36;4.65;;;3.00;;
33824;SDS011;20127;48.962;8.342;2023-05-10T01:51:39;5.10;;;3.70;;
33824;SDS011;20127;48.962;8.342;2023-05-10T01:55:01;7.13;;;3.75;;
33824;SDS011;20127;48.962;8.342;2023-05-10T01:58:07;4.30;;;3.40;;
33824;SDS011;20127;48.962;8.342;2023-05-10T02:01:10;5.13;;;3.20;;
33824;SDS011;20127;48.962;8.342;2023-05-10T02:04:15;5.43;;;3.33;;
33824;SDS011;20127;48.962;8.342;2023-05-10T02:07:18;5.38;;;4.22;;
33824;SDS011;20127;48.962;8.342;2023-05-10T02:10:21;4.93;;;4.07;;
33824;SDS011;20127;48.962;8.342;2023-05-10T02:13:23;8.05;;;5.25;;
33824;SDS011;20127;48.962;8.342;2023-05-10T02:16:26;5.00;;;4.43;;
33824;SDS011;20127;48.962;8.342;2023-05-10T02:19:32;6.05;;;4.30;;
33824;SDS011;20127;48.962;8.342;2023-05-10T02:22:35;5.55;;;5.00;;
33824;SDS011;20127;48.962;8.342;2023-05-10T02:25:38;13.13;;;4.68;;
33824;SDS011;20127;48.962;8.342;2023-05-10T02:28:40;7.05;;;4.78;;
33824;SDS011;20127;48.962;8.342;2023-05-10T02:31:44;5.60;;;4.50;;
33824;SDS011;20127;48.962;8.342;2023-05-10T02:34:47;4.65;;;4.25;;
33824;SDS011;20127;48.962;8.342;2023-05-10T02:37:51;5.45;;;4.55;;
33824;SDS011;20127;48.962;8.342;2023-05-10T02:40:54;5.43;;;4.78;;
33824;SDS011;20127;48.962;8.342;2023-05-10T02:43:57;4.97;;;4.47;;
33824;SDS011;20127;48.962;8.342;2023-05-10T02:47:02;5.38;;;4.88;;
33824;SDS011;20127;48.962;8.342;2023-05-10T02:50:06;6.90;;;5.03;;
33824;SDS011;20127;48.962;8.342;2023-05-10T02:53:09;4.50;;;4.10;;
33824;SDS011;20127;48.962;8.342;2023-05-10T02:56:25;4.93;;;4.43;;
33824;SDS011;20127;48.962;8.342;2023-05-10T02:59:30;5.55;;;5.03;;
33824;SDS011;20127;48.962;8.342;2023-05-10T03:02:32;5.28;;;3.20;;
33824;SDS011;20127;48.962;8.342;2023-05-10T03:05:35;4.90;;;4.15;;
33824;SDS011;20127;48.962;8.342;2023-05-10T03:08:37;7.55;;;4.53;;
33824;SDS011;20127;48.962;8.342;2023-05-10T03:11:43;5.20;;;4.70;;
33824;SDS011;20127;48.962;8.342;2023-05-10T03:14:53;5.65;;;3.90;;
33824;SDS011;20127;48.962;8.342;2023-05-10T03:18:02;5.75;;;4.60;;
33824;SDS011;20127;48.962;8.342;2023-05-10T03:21:10;7.07;;;4.72;;
33824;SDS011;20127;48.962;8.342;2023-05-10T03:24:15;7.22;;;6.53;;
33824;SDS011;20127;48.962;8.342;2023-05-10T03:27:19;4.95;;;4.47;;
33824;SDS011;20127;48.962;8.342;2023-05-10T03:30:23;6.65;;;4.53;;
33824;SDS011;20127;48.962;8.342;2023-05-10T03:33:25;7.50;;;5.22;;
33824;SDS011;20127;48.962;8.342;2023-05-10T03:36:28;7.90;;;4.20;;
33824;SDS011;20127;48.962;8.342;2023-05-10T03:39:30;7.50;;;4.82;;
33824;SDS011;20127;48.962;8.342;2023-05-10T03:42:32;8.32;;;5.03;;
33824;SDS011;20127;48.962;8.342;2023-05-10T03:45:33;9.85;;;4.78;;
33824;SDS011;20127;48.962;8.342;2023-05-10T03:48:35;4.45;;;4.00;;
33824;SDS011;20127;48.962;8.342;2023-05-10T03:51:38;4.53;;;4.13;;
33824;SDS011;20127;48.962;8.342;2023-05-10T03:54:40;5.32;;;4.82;;
33824;SDS011;20127;48.962;8.342;2023-05-10T03:57:41;4.90;;;4.40;;
33824;SDS011;20127;48.962;8.342;2023-05-10T04:00:43;4.93;;;4.32;;
33824;SDS011;20127;48.962;8.342;2023-05-10T04:03:45;4.75;;;3.88;;
33824;SDS011;20127;48.962;8.342;2023-05-10T04:06:48;7.13;;;4.97;;
33824;SDS011;20127;48.962;8.342;2023-05-10T04:09:50;4.82;;;4.43;;
33824;SDS011;20127;48.962;8.342;2023-05-10T04:12:52;5.78;;;3.97;;
33824;SDS011;20127;48.962;8.342;2023-05-10T04:15:53;5.32;;;3.95;;
33824;SDS011;20127;48.962;8.342;2023-05-10T04:18:55;4.38;;;3.95;;
33824;SDS011;20127;48.962;8.342;2023-05-10T04:21:58;7.32;;;4.10;;
33824;SDS011;20127;48.962;8.342;2023-05-10T04:25:00;9.63;;;5.03;;
33824;SDS011;20127;48.962;8.342;2023-05-10T04:28:02;6.82;;;4.32;;
33824;SDS011;20127;48.962;8.342;2023-05-10T04:31:04;6.00;;;4.80;;
33824;SDS011;20127;48.962;8.342;2023-05-10T04:34:06;4.75;;;4.28;;
33824;SDS011;20127;48.962;8.342;2023-05-10T04:37:09;9.27;;;5.30;;
33824;SDS011;20127;48.962;8.342;2023-05-10T04:40:11;4.00;;;3.60;;
33824;SDS011;20127;48.962;8.342;2023-05-10T04:43:13;6.53;;;4.70;;
33824;SDS011;20127;48.962;8.342;2023-05-10T04:46:15;5.38;;;4.88;;
33824;SDS011;20127;48.962;8.342;2023-05-10T04:49:16;5.80;;;4.60;;
33824;SDS011;20127;48.962;8.342;2023-05-10T04:52:20;8.70;;;5.45;;
33824;SDS011;20127;48.962;8.342;2023-05-10T04:55:22;5.97;;;4.32;;
33824;SDS011;20127;48.962;8.342;2023-05-10T04:58:23;5.97;;;5.35;;
33824;SDS011;20127;48.962;8.342;2023-05-10T05:01:25;5.65;;;5.15;;
33824;SDS011;20127;48.962;8.342;2023-05-10T05:04:27;7.43;;;5.10;;
33824;SDS011;20127;48.962;8.342;2023-05-10T05:07:30;6.13;;;5.53;;
33824;SDS011;20127;48.962;8.342;2023-05-10T05:10:31;7.15;;;5.63;;
33824;SDS011;20127;48.962;8.342;2023-05-10T05:13:33;6.57;;;5.38;;
33824;SDS011;20127;48.962;8.342;2023-05-10T05:16:35;5.97;;;4.93;;
33824;SDS011;20127;48.962;8.342;2023-05-10T05:19:36;7.53;;;6.53;;
33824;SDS011;20127;48.962;8.342;2023-05-10T05:22:39;5.95;;;5.00;;
33824;SDS011;20127;48.962;8.342;2023-05-10T05:25:41;6.45;;;5.07;;
33824;SDS011;20127;48.962;8.342;2023-05-10T05:28:43;6.97;;;4.10;;
33824;SDS011;20127;48.962;8.342;2023-05-10T05:31:45;5.32;;;4.03;;
33824;SDS011;20127;48.962;8.342;2023-05-10T05:34:46;5.95;;;4.55;;
33824;SDS011;20127;48.962;8.342;2023-05-10T05:37:50;4.45;;;3.88;;
33824;SDS011;20127;48.962;8.342;2023-05-10T05:40:51;5.22;;;4.78;;
33824;SDS011;20127;48.962;8.342;2023-05-10T05:43:53;6.38;;;4.30;;
33824;SDS011;20127;48.962;8.342;2023-05-10T05:46:55;6.28;;;3.40;;
33824;SDS011;20127;48.962;8.342;2023-05-10T05:49:56;3.55;;;3.25;;
33824;SDS011;20127;48.962;8.342;2023-05-10T05:52:59;14.73;;;3.10;;
33824;SDS011;20127;48.962;8.342;2023-05-10T05:56:01;5.47;;;4.82;;
33824;SDS011;20127;48.962;8.342;2023-05-10T05:59:03;10.88;;;3.80;;
33824;SDS011;20127;48.962;8.342;2023-05-10T06:02:05;3.33;;;2.83;;
33824;SDS011;20127;48.962;8.342;2023-05-10T06:05:07;3.38;;;3.08;;
33824;SDS011;20127;48.962;8.342;2023-05-10T06:08:10;4.88;;;3.50;;
33824;SDS011;20127;48.962;8.342;2023-05-10T06:11:12;5.65;;;3.33;;
33824;SDS011;20127;48.962;8.342;2023-05-10T06:14:14;7.00;;;2.90;;
33824;SDS011;20127;48.962;8.342;2023-05-10T06:17:15;3.08;;;2.80;;
33824;SDS011;20127;48.962;8.342;2023-05-10T06:20:18;4.95;;;3.33;;
33824;SDS011;20127;48.962;8.342;2023-05-10T06:23:21;3.83;;;3.53;;
33824;SDS011;20127;48.962;8.342;2023-05-10T06:26:23;3.92;;;3.55;;
33824;SDS011;20127;48.962;8.342;2023-05-10T06:29:24;5.82;;;4.97;;
33824;SDS011;20127;48.962;8.342;2023-05-10T06:32:26;4.72;;;4.07;;
33824;SDS011;20127;48.962;8.342;2023-05-10T06:35:28;4.40;;;4.00;;
33824;SDS011;20127;48.962;8.342;2023-05-10T06:38:32;4.85;;;3.03;;
33824;SDS011;20127;48.962;8.342;2023-05-10T06:41:34;5.25;;;2.67;;
33824;SDS011;20127;48.962;8.342;2023-05-10T06:44:36;4.55;;;3.35;;
33824;SDS011;20127;48.962;8.342;2023-05-10T06:47:37;5.50;;;3.10;;
33824;SDS011;20127;48.962;8.342;2023-05-10T06:50:39;3.65;;;2.58;;
33824;SDS011;20127;48.962;8.342;2023-05-10T06:53:42;2.97;;;2.67;;
33824;SDS011;20127;48.962;8.342;2023-05-10T06:56:44;2.60;;;2.40;;
33824;SDS011;20127;48.962;8.342;2023-05-10T06:59:45;5.78;;;2.63;;
33824;SDS011;20127;48.962;8.342;2023-05-10T07:02:47;2.72;;;2.22;;
33824;SDS011;20127;48.962;8.342;2023-05-10T07:05:49;3.50;;;2.30;;
33824;SDS011;20127;48.962;8.342;2023-05-10T07:08:52;4.28;;;1.98;;
33824;SDS011;20127;48.962;8.342;2023-05-10T07:11:53;4.53;;;1.70;;
33824;SDS011;20127;48.962;8.342;2023-05-10T07:14:57;3.58;;;1.80;;
33824;SDS011;20127;48.962;8.342;2023-05-10T07:17:58;2.40;;;1.60;;
33824;SDS011;20127;48.962;8.342;2023-05-10T07:21:00;4.15;;;1.20;;
33824;SDS011;20127;48.962;8.342;2023-05-10T07:24:04;1.40;;;1.30;;
33824;SDS011;20127;48.962;8.342;2023-05-10T07:27:06;3.78;;;2.15;;
33824;SDS011;20127;48.962;8.342;2023-05-10T07:30:08;1.85;;;1.75;;
33824;SDS011;20127;48.962;8.342;2023-05-10T07:33:12;1.50;;;1.10;;
33824;SDS011;20127;48.962;8.342;2023-05-10T07:36:14;1.80;;;1.00;;
33824;SDS011;20127;48.962;8.342;2023-05-10T07:39:17;1.35;;;0.98;;
33824;SDS011;20127;48.962;8.342;2023-05-10T07:42:20;1.30;;;1.15;;
33824;SDS011;20127;48.962;8.342;2023-05-10T07:45:22;2.75;;;1.20;;
33824;SDS011;20127;48.962;8.342;2023-05-10T07:48:24;1.98;;;0.90;;
33824;SDS011;20127;48.962;8.342;2023-05-10T07:51:25;1.15;;;1.05;;
33824;SDS011;20127;48.962;8.342;2023-05-10T07:54:29;1.33;;;1.17;;
33824;SDS011;20127;48.962;8.342;2023-05-10T07:57:30;1.85;;;0.82;;
33824;SDS011;20127;48.962;8.342;2023-05-10T08:00:32;4.82;;;1.10;;
33824;SDS011;20127;48.962;8.342;2023-05-10T08:03:34;3.63;;;0.95;;
33824;SDS011;20127;48.962;8.342;2023-05-10T08:06:36;4.25;;;1.10;;
33824;SDS011;20127;48.962;8.342;2023-05-10T08:09:39;1.50;;;0.90;;
33824;SDS011;20127;48.962;8.342;2023-05-10T08:12:41;0.75;;;0.60;;
33824;SDS011;20127;48.962;8.342;2023-05-10T08:15:42;1.85;;;1.20;;
33824;SDS011;20127;48.962;8.342;2023-05-10T08:18:44;1.10;;;0.82;;
33824;SDS011;20127;48.962;8.342;2023-05-10T08:21:47;1.48;;;0.68;;
33824;SDS011;20127;48.962;8.342;2023-05-10T08:24:51;1.85;;;0.90;;
33824;SDS011;20127;48.962;8.342;2023-05-10T08:27:53;1.38;;;0.70;;
33824;SDS011;20127;48.962;8.342;2023-05-10T08:30:55;0.98;;;0.50;;
33824;SDS011;20127;48.962;8.342;2023-05-10T08:33:56;0.63;;;0.60;;
33824;SDS011;20127;48.962;8.342;2023-05-10T08:36:58;3.08;;;1.48;;
33824;SDS011;20127;48.962;8.342;2023-05-10T08:40:01;0.95;;;0.70;;
33824;SDS011;20127;48.962;8.342;2023-05-10T08:43:04;2.13;;;0.70;;
33824;SDS011;20127;48.962;8.342;2023-05-10T08:46:08;0.75;;;0.68;;
33824;SDS011;20127;48.962;8.342;2023-05-10T08:49:11;3.60;;;0.70;;
33824;SDS011;20127;48.962;8.342;2023-05-10T08:52:17;0.73;;;0.70;;
33824;SDS011;20127;48.962;8.342;2023-05-10T08:55:21;3.08;;;1.05;;
33824;SDS011;20127;48.962;8.342;2023-05-10T08:58:23;1.20;;;0.90;;
33824;SDS011;20127;48.962;8.342;2023-05-10T09:01:26;0.70;;;0.70;;
33824;SDS011;20127;48.962;8.342;2023-05-10T09:04:28;0.82;;;0.75;;
33824;SDS011;20127;48.962;8.342;2023-05-10T09:07:30;2.22;;;0.73;;
33824;SDS011;20127;48.962;8.342;2023-05-10T09:10:34;1.67;;;1.58;;
33824;SDS011;20127;48.962;8.342;2023-05-10T09:13:36;2.42;;;0.57;;
33824;SDS011;20127;48.962;8.342;2023-05-10T09:16:39;1.63;;;0.80;;
33824;SDS011;20127;48.962;8.342;2023-05-10T09:19:41;2.88;;;1.00;;
33824;SDS011;20127;48.962;8.342;2023-05-10T09:22:42;1.33;;;0.70;;
33824;SDS011;20127;48.962;8.342;2023-05-10T09:25:46;2.72;;;1.00;;
33824;SDS011;20127;48.962;8.342;2023-05-10T09:28:51;1.20;;;1.10;;
33824;SDS011;20127;48.962;8.342;2023-05-10T09:31:53;2.85;;;1.75;;
33824;SDS011;20127;48.962;8.342;2023-05-10T09:34:55;2.33;;;1.55;;
33824;SDS011;20127;48.962;8.342;2023-05-10T09:37:57;1.65;;;1.10;;
33824;SDS011;20127;48.962;8.342;2023-05-10T09:41:02;1.25;;;1.15;;
33824;SDS011;20127;48.962;8.342;2023-05-10T09:44:04;1.02;;;0.95;;
33824;SDS011;20127;48.962;8.342;2023-05-10T09:47:05;1.27;;;0.90;;
33824;SDS011;20127;48.962;8.342;2023-05-10T09:50:07;6.93;;;1.10;;
33824;SDS011;20127;48.962;8.342;2023-05-10T09:53:10;2.25;;;1.00;;
33824;SDS011;20127;48.962;8.342;2023-05-10T09:59:42;3.88;;;1.10;;
33824;SDS011;20127;48.962;8.342;2023-05-10T10:02:45;2.17;;;1.00;;
33824;SDS011;20127;48.962;8.342;2023-05-10T10:05:48;1.92;;;0.80;;
33824;SDS011;20127;48.962;8.342;2023-05-10T10:08:50;3.05;;;0.73;;
33824;SDS011;20127;48.962;8.342;2023-05-10T10:11:53;2.63;;;0.90;;
33824;SDS011;20127;48.962;8.342;2023-05-10T10:14:56;0.98;;;0.93;;
33824;SDS011;20127;48.962;8.342;2023-05-10T10:18:01;1.70;;;1.10;;
33824;SDS011;20127;48.962;8.342;2023-05-10T10:21:04;1.08;;;0.80;;
33824;SDS011;20127;48.962;8.342;2023-05-10T10:24:06;5.20;;;1.10;;
33824;SDS011;20127;48.962;8.342;2023-05-10T10:27:11;3.75;;;1.52;;
33824;SDS011;20127;48.962;8.342;2023-05-10T10:30:23;2.92;;;1.10;;
33824;SDS011;20127;48.962;8.342;2023-05-10T10:33:30;2.78;;;1.67;;
33824;SDS011;20127;48.962;8.342;2023-05-10T10:36:40;2.92;;;1.70;;
33824;SDS011;20127;48.962;8.342;2023-05-10T10:39:43;4.50;;;1.80;;
33824;SDS011;20127;48.962;8.342;2023-05-10T10:42:46;4.70;;;1.75;;
33824;SDS011;20127;48.962;8.342;2023-05-10T10:49:14;2.80;;;1.35;;
33824;SDS011;20127;48.962;8.342;2023-05-10T10:52:24;3.47;;;1.42;;
33824;SDS011;20127;48.962;8.342;2023-05-10T10:55:28;4.03;;;1.45;;
33824;SDS011;20127;48.962;8.342;2023-05-10T10:58:31;1.20;;;1.10;;
33824;SDS011;20127;48.962;8.342;2023-05-10T11:01:34;6.70;;;1.77;;
33824;SDS011;20127;48.962;8.342;2023-05-10T11:04:42;1.85;;;1.20;;
33824;SDS011;20127;48.962;8.342;2023-05-10T11:07:52;2.90;;;1.33;;
33824;SDS011;20127;48.962;8.342;2023-05-10T11:11:04;4.22;;;2.63;;
33824;SDS011;20127;48.962;8.342;2023-05-10T11:14:11;6.40;;;1.23;;
33824;SDS011;20127;48.962;8.342;2023-05-10T11:17:23;3.20;;;1.85;;
33824;SDS011;20127;48.962;8.342;2023-05-10T11:20:27;3.10;;;1.73;;
33824;SDS011;20127;48.962;8.342;2023-05-10T11:23:47;7.30;;;1.35;;
33824;SDS011;20127;48.962;8.342;2023-05-10T11:26:50;6.18;;;1.83;;
33824;SDS011;20127;48.962;8.342;2023-05-10T11:29:53;3.17;;;1.25;;
33824;SDS011;20127;48.962;8.342;2023-05-10T11:32:55;1.42;;;1.33;;
33824;SDS011;20127;48.962;8.342;2023-05-10T11:35:57;4.90;;;0.93;;
33824;SDS011;20127;48.962;8.342;2023-05-10T11:38:59;1.23;;;1.10;;
33824;SDS011;20127;48.962;8.342;2023-05-10T11:42:00;2.70;;;0.95;;
33824;SDS011;20127;48.962;8.342;2023-05-10T11:45:04;2.60;;;0.80;;
33824;SDS011;20127;48.962;8.342;2023-05-10T11:48:06;2.03;;;0.80;;
33824;SDS011;20127;48.962;8.342;2023-05-10T11:51:09;3.10;;;0.68;;
33824;SDS011;20127;48.962;8.342;2023-05-10T11:54:11;8.43;;;7.68;;
33824;SDS011;20127;48.962;8.342;2023-05-10T11:57:13;2.63;;;1.20;;
33824;SDS011;20127;48.962;8.342;2023-05-10T12:03:26;5.03;;;4.63;;
33824;SDS011;20127;48.962;8.342;2023-05-10T12:06:29;4.22;;;1.10;;
33824;SDS011;20127;48.962;8.342;2023-05-10T12:09:32;2.55;;;1.02;;
33824;SDS011;20127;48.962;8.342;2023-05-10T12:12:37;4.20;;;3.42;;
33824;SDS011;20127;48.962;8.342;2023-05-10T12:15:39;6.90;;;4.68;;
33824;SDS011;20127;48.962;8.342;2023-05-10T12:18:43;6.55;;;4.18;;
33824;SDS011;20127;48.962;8.342;2023-05-10T12:21:45;10.55;;;8.68;;
33824;SDS011;20127;48.962;8.342;2023-05-10T12:24:47;9.23;;;8.27;;
33824;SDS011;20127;48.962;8.342;2023-05-10T12:27:49;4.22;;;1.30;;
33824;SDS011;20127;48.962;8.342;2023-05-10T12:30:52;5.05;;;1.90;;
33824;SDS011;20127;48.962;8.342;2023-05-10T12:33:56;13.00;;;9.63;;
33824;SDS011;20127;48.962;8.342;2023-05-10T12:36:58;5.53;;;4.65;;
33824;SDS011;20127;48.962;8.342;2023-05-10T12:40:00;8.73;;;5.60;;
33824;SDS011;20127;48.962;8.342;2023-05-10T12:43:01;6.50;;;5.88;;
33824;SDS011;20127;48.962;8.342;2023-05-10T12:46:06;8.90;;;4.63;;
33824;SDS011;20127;48.962;8.342;2023-05-10T12:49:10;5.82;;;4.95;;
33824;SDS011;20127;48.962;8.342;2023-05-10T12:52:11;6.35;;;4.18;;
33824;SDS011;20127;48.962;8.342;2023-05-10T12:55:13;2.70;;;2.50;;
33824;SDS011;20127;48.962;8.342;2023-05-10T12:58:15;2.25;;;1.67;;
33824;SDS011;20127;48.962;8.342;2023-05-10T13:01:17;2.60;;;2.00;;
33824;SDS011;20127;48.962;8.342;2023-05-10T13:04:19;11.55;;;7.32;;
33824;SDS011;20127;48.962;8.342;2023-05-10T13:07:21;7.53;;;5.50;;
33824;SDS011;20127;48.962;8.342;2023-05-10T13:10:23;4.43;;;3.95;;
33824;SDS011;20127;48.962;8.342;2023-05-10T13:13:25;4.40;;;3.15;;
33824;SDS011;20127;48.962;8.342;2023-05-10T13:16:27;4.53;;;4.10;;
33824;SDS011;20127;48.962;8.342;2023-05-10T13:19:30;21.00;;;2.78;;
33824;SDS011;20127;48.962;8.342;2023-05-10T13:22:31;1.33;;;1.02;;
33824;SDS011;20127;48.962;8.342;2023-05-10T13:25:33;1.60;;;0.75;;
33824;SDS011;20127;48.962;8.342;2023-05-10T13:28:35;2.60;;;0.85;;
33824;SDS011;20127;48.962;8.342;2023-05-10T13:31:38;0.75;;;0.55;;
33824;SDS011;20127;48.962;8.342;2023-05-10T13:34:41;1.65;;;1.27;;
33824;SDS011;20127;48.962;8.342;2023-05-10T13:37:43;4.88;;;0.90;;
33824;SDS011;20127;48.962;8.342;2023-05-10T13:40:45;8.98;;;2.25;;
33824;SDS011;20127;48.962;8.342;2023-05-10T13:43:46;1.20;;;0.70;;
33824;SDS011;20127;48.962;8.342;2023-05-10T13:46:49;3.15;;;2.88;;
33824;SDS011;20127;48.962;8.342;2023-05-10T13:49:55;7.35;;;6.70;;
33824;SDS011;20127;48.962;8.342;2023-05-10T13:52:57;5.95;;;4.13;;
33824;SDS011;20127;48.962;8.342;2023-05-10T13:55:59;0.90;;;0.73;;
33824;SDS011;20127;48.962;8.342;2023-05-10T13:59:02;2.33;;;1.08;;
33824;SDS011;20127;48.962;8.342;2023-05-10T14:02:03;12.07;;;10.18;;
33824;SDS011;20127;48.962;8.342;2023-05-10T14:05:07;4.65;;;3.80;;
33824;SDS011;20127;48.962;8.342;2023-05-10T14:08:09;1.85;;;0.85;;
33824;SDS011;20127;48.962;8.342;2023-05-10T14:11:10;1.45;;;1.35;;
33824;SDS011;20127;48.962;8.342;2023-05-10T14:14:12;1.52;;;0.90;;
33824;SDS011;20127;48.962;8.342;2023-05-10T14:17:14;0.93;;;0.80;;
33824;SDS011;20127;48.962;8.342;2023-05-10T14:20:17;0.82;;;0.82;;
33824;SDS011;20127;48.962;8.342;2023-05-10T14:23:19;2.08;;;1.00;;
33824;SDS011;20127;48.962;8.342;2023-05-10T14:26:24;2.38;;;1.00;;
33824;SDS011;20127;48.962;8.342;2023-05-10T14:29:26;1.90;;;0.73;;
33824;SDS011;20127;48.962;8.342;2023-05-10T14:32:28;3.38;;;0.47;;
33824;SDS011;20127;48.962;8.342;2023-05-10T14:35:31;0.70;;;0.70;;
33824;SDS011;20127;48.962;8.342;2023-05-10T14:38:32;4.70;;;1.00;;
33824;SDS011;20127;48.962;8.342;2023-05-10T14:41:34;1.48;;;0.77;;
33824;SDS011;20127;48.962;8.342;2023-05-10T14:44:36;0.85;;;0.60;;
33824;SDS011;20127;48.962;8.342;2023-05-10T14:47:37;3.55;;;0.88;;
33824;SDS011;20127;48.962;8.342;2023-05-10T14:50:40;1.55;;;0.65;;
33824;SDS011;20127;48.962;8.342;2023-05-10T14:53:42;0.50;;;0.50;;
33824;SDS011;20127;48.962;8.342;2023-05-10T14:56:44;1.95;;;0.70;;
33824;SDS011;20127;48.962;8.342;2023-05-10T14:59:46;1.20;;;1.15;;
33824;SDS011;20127;48.962;8.342;2023-05-10T15:02:48;1.30;;;0.50;;
33824;SDS011;20127;48.962;8.342;2023-05-10T15:05:51;0.63;;;0.57;;
33824;SDS011;20127;48.962;8.342;2023-05-10T15:08:53;2.90;;;0.77;;
33824;SDS011;20127;48.962;8.342;2023-05-10T15:11:54;5.03;;;2.60;;
33824;SDS011;20127;48.962;8.342;2023-05-10T15:14:56;2.50;;;1.85;;
33824;SDS011;20127;48.962;8.342;2023-05-10T15:17:58;1.55;;;1.20;;
33824;SDS011;20127;48.962;8.342;2023-05-10T15:21:01;4.03;;;2.45;;
33824;SDS011;20127;48.962;8.342;2023-05-10T15:24:03;2.40;;;1.95;;
33824;SDS011;20127;48.962;8.342;2023-05-10T15:27:05;1.55;;;0.70;;
33824;SDS011;20127;48.962;8.342;2023-05-10T15:30:07;5.03;;;3.30;;
33824;SDS011;20127;48.962;8.342;2023-05-10T15:33:09;4.95;;;0.65;;
33824;SDS011;20127;48.962;8.342;2023-05-10T15:36:12;0.57;;;0.57;;
33824;SDS011;20127;48.962;8.342;2023-05-10T15:39:14;4.68;;;3.55;;
33824;SDS011;20127;48.962;8.342;2023-05-10T15:42:16;12.30;;;11.07;;
33824;SDS011;20127;48.962;8.342;2023-05-10T15:45:17;1.15;;;1.05;;
33824;SDS011;20127;48.962;8.342;2023-05-10T15:48:19;1.60;;;0.65;;
33824;SDS011;20127;48.962;8.342;2023-05-10T15:51:22;4.15;;;0.73;;
33824;SDS011;20127;48.962;8.342;2023-05-10T15:54:24;0.88;;;0.82;;
33824;SDS011;20127;48.962;8.342;2023-05-10T15:57:26;1.98;;;0.80;;
33824;SDS011;20127;48.962;8.342;2023-05-10T16:00:27;1.70;;;1.30;;
33824;SDS011;20127;48.962;8.342;2023-05-10T16:03:29;1.20;;;1.02;;
33824;SDS011;20127;48.962;8.342;2023-05-10T16:06:32;1.40;;;1.15;;
33824;SDS011;20127;48.962;8.342;2023-05-10T16:09:34;1.30;;;1.20;;
33824;SDS011;20127;48.962;8.342;2023-05-10T16:12:36;1.08;;;0.80;;
33824;SDS011;20127;48.962;8.342;2023-05-10T16:15:38;0.85;;;0.80;;
33824;SDS011;20127;48.962;8.342;2023-05-10T16:18:40;0.60;;;0.60;;
33824;SDS011;20127;48.962;8.342;2023-05-10T16:21:43;1.65;;;0.65;;
33824;SDS011;20127;48.962;8.342;2023-05-10T16:24:45;1.40;;;0.93;;
33824;SDS011;20127;48.962;8.342;2023-05-10T16:27:47;4.75;;;0.63;;
33824;SDS011;20127;48.962;8.342;2023-05-10T16:30:50;0.65;;;0.65;;
33824;SDS011;20127;48.962;8.342;2023-05-10T16:33:51;2.28;;;1.20;;
33824;SDS011;20127;48.962;8.342;2023-05-10T16:36:54;1.27;;;0.50;;
33824;SDS011;20127;48.962;8.342;2023-05-10T16:39:56;0.60;;;0.55;;
33824;SDS011;20127;48.962;8.342;2023-05-10T16:42:58;0.50;;;0.32;;
33824;SDS011;20127;48.962;8.342;2023-05-10T16:45:59;1.00;;;0.30;;
33824;SDS011;20127;48.962;8.342;2023-05-10T16:49:01;0.30;;;0.30;;
33824;SDS011;20127;48.962;8.342;2023-05-10T16:52:04;0.68;;;0.63;;
33824;SDS011;20127;48.962;8.342;2023-05-10T16:55:06;0.30;;;0.30;;
33824;SDS011;20127;48.962;8.342;2023-05-10T16:58:08;0.60;;;0.40;;
33824;SDS011;20127;48.962;8.342;2023-05-10T17:01:10;0.20;;;0.15;;
33824;SDS011;20127;48.962;8.342;2023-05-10T17:04:11;1.20;;;0.40;;
33824;SDS011;20127;48.962;8.342;2023-05-10T17:07:15;0.52;;;0.50;;
33824;SDS011;20127;48.962;8.342;2023-05-10T17:10:18;0.30;;;0.30;;
33824;SDS011;20127;48.962;8.342;2023-05-10T17:13:19;0.73;;;0.30;;
33824;SDS011;20127;48.962;8.342;2023-05-10T17:16:21;0.68;;;0.32;;
33824;SDS011;20127;48.962;8.342;2023-05-10T17:19:23;1.80;;;0.40;;
33824;SDS011;20127;48.962;8.342;2023-05-10T17:22:26;0.40;;;0.40;;
33824;SDS011;20127;48.962;8.342;2023-05-10T17:25:27;1.95;;;0.30;;
33824;SDS011;20127;48.962;8.342;2023-05-10T17:28:29;0.40;;;0.40;;
33824;SDS011;20127;48.962;8.342;2023-05-10T17:31:31;3.13;;;0.68;;
33824;SDS011;20127;48.962;8.342;2023-05-10T17:34:33;3.20;;;1.05;;
33824;SDS011;20127;48.962;8.342;2023-05-10T17:37:36;2.40;;;0.40;;
33824;SDS011;20127;48.962;8.342;2023-05-10T17:40:39;0.73;;;0.40;;
33824;SDS011;20127;48.962;8.342;2023-05-10T17:43:40;0.57;;;0.30;;
33824;SDS011;20127;48.962;8.342;2023-05-10T17:46:42;1.92;;;0.47;;
33824;SDS011;20127;48.962;8.342;2023-05-10T17:49:44;1.80;;;0.50;;
33824;SDS011;20127;48.962;8.342;2023-05-10T17:52:47;0.40;;;0.40;;
33824;SDS011;20127;48.962;8.342;2023-05-10T17:55:49;4.57;;;0.55;;
33824;SDS011;20127;48.962;8.342;2023-05-10T17:58:51;0.30;;;0.30;;
33824;SDS011;20127;48.962;8.342;2023-05-10T18:01:53;0.77;;;0.40;;
33824;SDS011;20127;48.962;8.342;2023-05-10T18:04:54;1.33;;;0.52;;
33824;SDS011;20127;48.962;8.342;2023-05-10T18:07:58;1.75;;;0.77;;
33824;SDS011;20127;48.962;8.342;2023-05-10T18:11:00;0.65;;;0.57;;
33824;SDS011;20127;48.962;8.342;2023-05-10T18:14:01;0.75;;;0.68;;
33824;SDS011;20127;48.962;8.342;2023-05-10T18:17:04;2.72;;;0.65;;
33824;SDS011;20127;48.962;8.342;2023-05-10T18:20:07;0.70;;;0.70;;
33824;SDS011;20127;48.962;8.342;2023-05-10T18:23:10;0.40;;;0.40;;
33824;SDS011;20127;48.962;8.342;2023-05-10T18:26:13;1.23;;;0.68;;
33824;SDS011;20127;48.962;8.342;2023-05-10T18:29:15;0.30;;;0.30;;
33824;SDS011;20127;48.962;8.342;2023-05-10T18:32:17;0.55;;;0.50;;
33824;SDS011;20127;48.962;8.342;2023-05-10T18:35:19;2.22;;;0.63;;
33824;SDS011;20127;48.962;8.342;2023-05-10T18:38:22;1.67;;;0.80;;